createdAt,value
2023-05-01T00:01:13.684Z,14.76
2023-05-01T00:03:40.618Z,15.10
2023-05-01T00:06:07.863Z,15.28
2023-05-01T00:08:35.239Z,15.24
2023-05-01T00:11:05.604Z,15.25
2023-05-01T00:13:32.798Z,15.16
2023-05-01T00:15:59.547Z,14.64
2023-05-01T00:18:32.255Z,14.91
2023-05-01T00:20:59.508Z,14.98
2023-05-01T00:23:27.655Z,14.16
2023-05-01T00:25:54.801Z,13.79
2023-05-01T00:31:55.718Z,14.96
2023-05-01T00:34:22.529Z,15.06
2023-05-01T00:36:50.764Z,14.36
2023-05-01T00:39:17.570Z,14.98
2023-05-01T00:41:44.462Z,15.08
2023-05-01T00:44:12.328Z,15.13
2023-05-01T00:46:39.353Z,14.64
2023-05-01T00:49:07.303Z,13.41
2023-05-01T00:51:34.159Z,12.91
2023-05-01T00:54:01.597Z,12.57
2023-05-01T00:56:30.005Z,12.56
2023-05-01T00:58:56.854Z,13.35
2023-05-01T01:01:24.285Z,13.81
2023-05-01T01:03:51.138Z,14.08
2023-05-01T01:06:43.155Z,13.79
2023-05-01T01:09:32.270Z,13.19
2023-05-01T01:12:26.708Z,12.72
2023-05-01T01:14:58.763Z,12.03
2023-05-01T01:17:58.692Z,12.28
2023-05-01T01:20:32.443Z,11.78
2023-05-01T01:23:26.277Z,12.24
2023-05-01T01:26:23.394Z,12.89
2023-05-01T01:29:13.029Z,12.78
2023-05-01T01:31:39.761Z,13.51
2023-05-01T01:34:16.451Z,13.20
2023-05-01T01:36:46.797Z,13.15
2023-05-01T01:39:23.906Z,14.07
2023-05-01T01:41:51.789Z,14.43
2023-05-01T01:44:52.311Z,13.66
2023-05-01T01:47:19.327Z,14.19
2023-05-01T01:49:48.780Z,14.55
2023-05-01T01:52:16.949Z,14.62
2023-05-01T01:54:51.668Z,14.97
2023-05-01T01:57:22.051Z,15.03
2023-05-01T01:59:48.927Z,14.47
2023-05-01T02:02:17.918Z,13.83
2023-05-01T02:04:45.038Z,13.19
2023-05-01T02:07:12.346Z,13.03
2023-05-01T02:09:39.945Z,13.95
2023-05-01T02:12:07.138Z,13.61
2023-05-01T02:14:35.126Z,13.22
2023-05-01T02:17:03.408Z,13.29
2023-05-01T02:19:31.710Z,13.99
2023-05-01T02:21:58.843Z,13.39
2023-05-01T02:24:25.630Z,12.40
2023-05-01T02:26:57.095Z,12.45
2023-05-01T02:29:23.950Z,13.33
2023-05-01T02:31:51.973Z,13.52
2023-05-01T02:34:18.869Z,13.87
2023-05-01T02:36:45.926Z,13.48
2023-05-01T02:39:12.690Z,13.15
2023-05-01T02:41:39.395Z,12.68
2023-05-01T02:44:06.252Z,12.17
2023-05-01T02:46:35.333Z,11.46
2023-05-01T02:49:05.047Z,11.55
2023-05-01T02:51:32.129Z,11.43
2023-05-01T02:53:59.823Z,11.84
2023-05-01T02:56:29.300Z,11.55
2023-05-01T02:58:57.465Z,11.09
2023-05-01T03:01:24.326Z,11.02
2023-05-01T03:03:52.148Z,11.25
2023-05-01T03:06:19.397Z,11.83
2023-05-01T03:08:46.825Z,11.65
2023-05-01T03:11:14.934Z,11.72
2023-05-01T03:13:42.034Z,12.09
2023-05-01T03:16:10.170Z,12.05
2023-05-01T03:18:37.754Z,11.90
2023-05-01T03:21:05.220Z,11.60
2023-05-01T03:23:34.838Z,11.52
2023-05-01T03:26:01.980Z,11.05
2023-05-01T03:28:29.262Z,11.13
2023-05-01T03:30:58.964Z,11.51
2023-05-01T03:33:25.805Z,11.45
2023-05-01T03:36:03.162Z,11.62
2023-05-01T03:38:30.828Z,12.56
2023-05-01T03:41:00.475Z,13.21
2023-05-01T03:43:30.086Z,13.39
2023-05-01T03:45:58.503Z,12.95
2023-05-01T03:48:26.534Z,12.49
2023-05-01T03:50:56.061Z,13.13
2023-05-01T03:53:23.137Z,12.59
2023-05-01T03:55:50.194Z,13.29
2023-05-01T03:58:17.797Z,13.82
2023-05-01T04:00:45.172Z,14.08
2023-05-01T04:03:12.482Z,14.08
2023-05-01T04:05:40.613Z,14.15
2023-05-01T04:08:08.641Z,13.01
2023-05-01T04:10:36.042Z,12.54
2023-05-01T04:13:03.007Z,13.07
2023-05-01T04:15:30.897Z,13.08
2023-05-01T04:17:58.097Z,11.89
2023-05-01T04:20:25.875Z,12.20
2023-05-01T04:26:33.363Z,11.52
2023-05-01T04:29:03.228Z,12.06
2023-05-01T04:31:32.825Z,11.90
2023-05-01T04:34:02.463Z,12.30
2023-05-01T04:36:29.360Z,12.33
2023-05-01T04:38:56.533Z,12.40
2023-05-01T04:41:23.647Z,12.74
2023-05-01T04:43:51.738Z,12.75
2023-05-01T04:46:20.014Z,12.41
2023-05-01T04:48:47.698Z,12.91
2023-05-01T04:51:15.441Z,12.48
2023-05-01T04:53:42.527Z,10.95
2023-05-01T04:56:10.094Z,11.38
2023-05-01T04:58:38.346Z,11.03
2023-05-01T05:01:05.655Z,11.03
2023-05-01T05:03:32.592Z,11.23
2023-05-01T05:05:59.801Z,11.52
2023-05-01T05:08:53.574Z,11.89
2023-05-01T05:11:33.199Z,12.15
2023-05-01T05:14:03.405Z,12.80
2023-05-01T05:16:30.518Z,13.20
2023-05-01T05:18:57.623Z,12.87
2023-05-01T05:21:24.740Z,13.14
2023-05-01T05:23:51.667Z,13.47
2023-05-01T05:26:19.894Z,12.80
2023-05-01T05:28:46.727Z,12.21
2023-05-01T05:31:24.351Z,11.23
2023-05-01T05:33:51.579Z,11.25
2023-05-01T05:36:18.394Z,10.79
2023-05-01T05:38:50.357Z,10.87
2023-05-01T05:41:17.252Z,11.59
2023-05-01T05:43:44.348Z,12.07
2023-05-01T05:46:11.533Z,11.63
2023-05-01T05:48:40.072Z,11.13
2023-05-01T05:51:06.851Z,11.83
2023-05-01T05:53:36.519Z,12.07
2023-05-01T05:56:03.882Z,12.29
2023-05-01T05:58:31.197Z,12.63
2023-05-01T06:00:58.965Z,12.96
2023-05-01T06:03:27.099Z,13.48
2023-05-01T06:05:54.359Z,13.19
2023-05-01T06:08:24.185Z,13.81
2023-05-01T06:10:52.265Z,14.11
2023-05-01T06:13:19.321Z,14.26
2023-05-01T06:15:46.105Z,13.80
2023-05-01T06:18:21.869Z,13.73
2023-05-01T06:20:48.799Z,11.58
2023-05-01T06:23:16.672Z,12.05
2023-05-01T06:25:43.893Z,12.73
2023-05-01T06:28:11.792Z,12.76
2023-05-01T06:30:41.494Z,12.95
2023-05-01T06:33:09.361Z,12.17
2023-05-01T06:35:39.209Z,12.22
2023-05-01T06:38:06.456Z,12.66
2023-05-01T06:40:33.626Z,12.96
2023-05-01T06:43:01.842Z,12.49
2023-05-01T06:45:28.606Z,13.00
2023-05-01T06:47:55.825Z,13.34
2023-05-01T06:50:25.615Z,13.40
2023-05-01T06:52:52.840Z,13.37
2023-05-01T06:55:20.242Z,12.83
2023-05-01T06:57:47.474Z,12.74
2023-05-01T07:00:17.150Z,12.78
2023-05-01T07:02:45.109Z,12.83
2023-05-01T07:05:12.409Z,13.01
2023-05-01T07:07:44.587Z,12.84
2023-05-01T07:10:18.602Z,12.64
2023-05-01T07:12:45.733Z,12.83
2023-05-01T07:15:15.621Z,12.71
2023-05-01T07:17:45.624Z,13.27
2023-05-01T07:20:12.744Z,13.70
2023-05-01T07:22:43.218Z,13.63
2023-05-01T07:25:10.230Z,14.00
2023-05-01T07:27:39.894Z,13.27
2023-05-01T07:30:08.816Z,13.71
2023-05-01T07:32:35.908Z,14.30
2023-05-01T07:35:06.078Z,14.92
2023-05-01T07:37:32.978Z,14.70
2023-05-01T07:39:59.824Z,14.11
2023-05-01T07:42:27.953Z,13.50
2023-05-01T07:44:55.908Z,13.77
2023-05-01T07:47:23.057Z,13.40
2023-05-01T07:49:50.161Z,12.83
2023-05-01T07:52:19.513Z,12.11
2023-05-01T07:54:50.506Z,11.94
2023-05-01T07:57:17.369Z,11.79
2023-05-01T07:59:44.264Z,12.02
2023-05-01T08:02:12.876Z,12.02
2023-05-01T08:04:40.715Z,12.09
2023-05-01T08:07:08.193Z,11.82
2023-05-01T08:09:35.630Z,12.22
2023-05-01T08:12:03.228Z,12.67
2023-05-01T08:14:31.184Z,12.38
2023-05-01T08:16:58.291Z,12.54
2023-05-01T08:19:27.883Z,12.95
2023-05-01T08:21:55.338Z,13.60
2023-05-01T08:24:22.225Z,13.83
2023-05-01T08:26:49.255Z,14.08
2023-05-01T08:29:16.327Z,14.58
2023-05-01T08:31:46.120Z,13.93
2023-05-01T08:34:12.850Z,14.27
2023-05-01T08:36:40.006Z,14.89
2023-05-01T08:39:07.804Z,14.45
2023-05-01T08:41:34.621Z,14.35
2023-05-01T08:44:01.396Z,14.19
2023-05-01T08:46:53.838Z,13.03
2023-05-01T08:49:21.462Z,13.30
2023-05-01T08:51:49.218Z,13.44
2023-05-01T08:54:16.577Z,13.17
2023-05-01T08:56:43.697Z,13.35
2023-05-01T08:59:11.742Z,13.23
2023-05-01T09:01:38.814Z,13.22
2023-05-01T09:04:06.755Z,13.15
2023-05-01T09:06:34.326Z,12.74
2023-05-01T09:09:01.506Z,12.41
2023-05-01T09:11:28.815Z,12.34
2023-05-01T09:13:57.798Z,12.33
2023-05-01T09:16:27.377Z,11.83
2023-05-01T09:18:55.271Z,12.21
2023-05-01T09:21:22.770Z,12.47
2023-05-01T09:23:55.617Z,12.71
2023-05-01T09:26:22.809Z,12.88
2023-05-01T09:28:49.875Z,12.40
2023-05-01T09:31:27.425Z,12.10
2023-05-01T09:34:00.010Z,12.95
2023-05-01T09:36:32.213Z,12.76
2023-05-01T09:38:59.275Z,12.82
2023-05-01T09:41:26.131Z,13.48
2023-05-01T09:43:53.547Z,13.69
2023-05-01T09:46:20.453Z,13.78
2023-05-01T09:49:02.802Z,13.97
2023-05-01T09:51:30.633Z,13.80
2023-05-01T09:54:01.833Z,13.81
2023-05-01T09:56:30.696Z,12.88
2023-05-01T09:58:58.444Z,13.34
2023-05-01T10:01:52.855Z,12.95
2023-05-01T10:04:29.767Z,12.74
2023-05-01T10:07:12.311Z,12.82
2023-05-01T10:09:40.060Z,12.72
2023-05-01T10:12:08.126Z,12.78
2023-05-01T10:14:36.137Z,12.66
2023-05-01T10:17:02.913Z,12.35
2023-05-01T10:19:30.128Z,13.11
2023-05-01T10:21:57.384Z,12.75
2023-05-01T10:24:24.066Z,12.80
2023-05-01T10:26:50.857Z,12.95
2023-05-01T10:29:20.979Z,12.75
2023-05-01T10:31:48.364Z,12.79
2023-05-01T10:34:18.266Z,12.65
2023-05-01T10:36:47.517Z,13.11
2023-05-01T10:39:33.699Z,12.57
2023-05-01T10:42:07.753Z,12.57
2023-05-01T10:44:35.089Z,12.35
2023-05-01T10:47:24.526Z,12.81
2023-05-01T10:50:08.004Z,13.29
2023-05-01T10:53:15.012Z,13.63
2023-05-01T10:55:45.541Z,13.56
2023-05-01T10:58:12.698Z,12.71
2023-05-01T11:00:40.176Z,12.95
2023-05-01T11:03:28.137Z,13.27
2023-05-01T11:06:04.947Z,13.67
2023-05-01T11:08:32.444Z,13.93
2023-05-01T11:11:20.900Z,13.57
2023-05-01T11:14:07.461Z,13.42
2023-05-01T11:16:34.530Z,13.27
2023-05-01T11:19:01.737Z,13.78
2023-05-01T11:21:32.215Z,13.74
2023-05-01T11:24:00.099Z,13.69
2023-05-01T11:26:31.916Z,14.11
2023-05-01T11:29:00.826Z,14.74
2023-05-01T11:31:31.272Z,14.76
2023-05-01T11:34:03.589Z,14.87
2023-05-01T11:36:31.798Z,15.38
2023-05-01T11:38:59.035Z,14.78
2023-05-01T11:41:26.701Z,15.53
2023-05-01T11:43:54.767Z,14.84
2023-05-01T11:46:29.176Z,14.80
2023-05-01T11:48:56.849Z,15.77
2023-05-01T11:51:24.304Z,16.15
2023-05-01T11:54:01.284Z,16.15
2023-05-01T11:56:28.371Z,15.41
2023-05-01T11:58:59.079Z,15.55
2023-05-01T12:01:41.188Z,15.92
2023-05-01T12:04:08.359Z,16.39
2023-05-01T12:06:43.319Z,16.48
2023-05-01T12:09:11.002Z,15.83
2023-05-01T12:11:38.364Z,16.45
2023-05-01T12:14:09.547Z,16.58
2023-05-01T12:16:36.982Z,17.06
2023-05-01T12:19:04.305Z,17.01
2023-05-01T12:21:31.365Z,17.11
2023-05-01T12:24:07.978Z,16.57
2023-05-01T12:26:35.264Z,15.54
2023-05-01T12:29:05.834Z,16.42
2023-05-01T12:31:32.642Z,16.87
2023-05-01T12:34:06.126Z,16.15
2023-05-01T12:36:35.191Z,17.02
2023-05-01T12:39:10.962Z,16.28
2023-05-01T12:41:45.252Z,16.42
2023-05-01T12:44:26.734Z,16.99
2023-05-01T12:46:59.736Z,16.94
2023-05-01T12:49:27.426Z,16.76
2023-05-01T12:51:55.444Z,17.08
2023-05-01T12:54:29.031Z,17.21
2023-05-01T12:57:11.886Z,15.51
2023-05-01T12:59:40.916Z,15.58
2023-05-01T13:02:09.629Z,17.03
2023-05-01T13:04:36.601Z,16.28
2023-05-01T13:07:31.034Z,16.72
2023-05-01T13:09:59.129Z,17.54
2023-05-01T13:12:30.122Z,17.62
2023-05-01T13:14:57.280Z,17.54
2023-05-01T13:17:31.157Z,17.26
2023-05-01T13:19:59.537Z,17.67
2023-05-01T13:22:39.082Z,16.76
2023-05-01T13:25:14.974Z,16.89
2023-05-01T13:27:47.109Z,17.09
2023-05-01T13:30:13.769Z,15.70
2023-05-01T13:32:53.571Z,15.95
2023-05-01T13:35:31.317Z,15.56
2023-05-01T13:37:59.072Z,16.04
2023-05-01T13:40:26.336Z,15.62
2023-05-01T13:42:56.046Z,15.81
2023-05-01T13:45:23.604Z,15.76
2023-05-01T13:47:50.640Z,15.94
2023-05-01T13:50:17.582Z,15.66
2023-05-01T13:52:44.567Z,16.02
2023-05-01T13:55:12.069Z,15.84
2023-05-01T13:57:39.502Z,15.10
2023-05-01T14:00:08.902Z,14.96
2023-05-01T14:02:37.225Z,15.59
2023-05-01T14:05:08.174Z,14.81
2023-05-01T14:07:35.807Z,15.41
2023-05-01T14:10:04.095Z,15.20
2023-05-01T14:12:31.471Z,15.73
2023-05-01T14:14:58.444Z,16.08
2023-05-01T14:17:33.865Z,16.50
2023-05-01T14:20:04.767Z,15.62
2023-05-01T14:22:41.505Z,15.72
2023-05-01T14:25:25.304Z,15.98
2023-05-01T14:27:53.824Z,16.41
2023-05-01T14:30:29.249Z,16.57
2023-05-01T14:32:57.161Z,16.33
2023-05-01T14:35:24.644Z,16.63
2023-05-01T14:37:54.145Z,17.05
2023-05-01T14:40:27.136Z,17.56
2023-05-01T14:42:57.202Z,16.83
2023-05-01T14:45:24.410Z,16.69
2023-05-01T14:47:52.220Z,17.02
2023-05-01T14:50:21.214Z,16.62
2023-05-01T14:52:55.101Z,16.91
2023-05-01T14:55:26.950Z,16.87
2023-05-01T14:57:53.765Z,16.86
2023-05-01T15:00:24.795Z,17.27
2023-05-01T15:02:52.100Z,17.74
2023-05-01T15:05:18.919Z,18.06
2023-05-01T15:07:46.113Z,17.83
2023-05-01T15:10:13.950Z,17.66
2023-05-01T15:12:41.176Z,17.38
2023-05-01T15:15:08.797Z,17.92
2023-05-01T15:17:36.180Z,18.17
2023-05-01T15:20:03.735Z,17.78
2023-05-01T15:22:30.923Z,17.39
2023-05-01T15:25:03.039Z,17.52
2023-05-01T15:27:30.118Z,17.77
2023-05-01T15:29:57.201Z,17.90
2023-05-01T15:32:24.168Z,17.96
2023-05-01T15:34:51.586Z,18.06
2023-05-01T15:37:18.263Z,17.45
2023-05-01T15:39:46.224Z,17.88
2023-05-01T15:42:12.935Z,17.55
2023-05-01T15:44:40.063Z,17.49
2023-05-01T15:47:08.509Z,17.11
2023-05-01T15:49:35.321Z,17.27
2023-05-01T15:52:04.903Z,17.67
2023-05-01T15:54:31.603Z,17.30
2023-05-01T15:56:58.406Z,17.57
2023-05-01T15:59:26.465Z,17.48
2023-05-01T16:02:20.913Z,17.55
2023-05-01T16:04:48.706Z,17.95
2023-05-01T16:07:18.224Z,18.17
2023-05-01T16:09:47.226Z,17.61
2023-05-01T16:12:13.975Z,17.86
2023-05-01T16:14:41.220Z,18.07
2023-05-01T16:17:10.834Z,17.95
2023-05-01T16:19:37.661Z,18.35
2023-05-01T16:22:05.062Z,18.41
2023-05-01T16:24:35.066Z,18.45
2023-05-01T16:27:05.239Z,18.28
2023-05-01T16:29:35.080Z,16.15
2023-05-01T16:32:04.089Z,16.89
2023-05-01T16:34:30.792Z,15.96
2023-05-01T16:36:57.561Z,17.04
2023-05-01T16:39:25.056Z,16.96
2023-05-01T16:41:52.769Z,16.81
2023-05-01T16:44:20.118Z,15.67
2023-05-01T16:46:56.689Z,15.58
2023-05-01T16:49:25.089Z,16.40
2023-05-01T16:51:52.306Z,16.22
2023-05-01T16:54:19.108Z,15.38
2023-05-01T16:56:46.200Z,15.14
2023-05-01T16:59:13.285Z,14.92
2023-05-01T17:01:42.855Z,14.96
2023-05-01T17:04:09.643Z,13.84
2023-05-01T17:06:36.419Z,13.93
2023-05-01T17:09:08.278Z,14.02
2023-05-01T17:11:35.333Z,13.94
2023-05-01T17:14:02.261Z,14.39
2023-05-01T17:16:29.258Z,14.37
2023-05-01T17:18:57.876Z,14.08
2023-05-01T17:21:27.126Z,14.48
2023-05-01T17:24:03.784Z,14.76
2023-05-01T17:26:36.861Z,14.44
2023-05-01T17:32:36.489Z,15.08
2023-05-01T17:35:07.691Z,15.35
2023-05-01T17:37:34.619Z,15.13
2023-05-01T17:40:04.374Z,15.06
2023-05-01T17:42:31.175Z,15.32
2023-05-01T17:44:59.160Z,15.62
2023-05-01T17:47:26.396Z,14.94
2023-05-01T17:49:56.164Z,15.35
2023-05-01T17:52:23.380Z,16.08
2023-05-01T17:54:50.481Z,16.31
2023-05-01T17:57:17.578Z,16.24
2023-05-01T17:59:44.300Z,16.16
2023-05-01T18:02:11.463Z,16.58
2023-05-01T18:04:38.675Z,17.93
2023-05-01T18:07:05.867Z,18.25
2023-05-01T18:09:33.015Z,17.33
2023-05-01T18:12:00.111Z,17.27
2023-05-01T18:14:27.908Z,15.75
2023-05-01T18:16:54.754Z,14.31
2023-05-01T18:19:22.683Z,14.29
2023-05-01T18:21:51.822Z,13.50
2023-05-01T18:24:18.497Z,13.50
2023-05-01T18:26:46.309Z,13.02
2023-05-01T18:29:13.353Z,13.27
2023-05-01T18:31:40.113Z,13.64
2023-05-01T18:34:07.522Z,13.91
2023-05-01T18:36:35.118Z,13.83
2023-05-01T18:39:01.821Z,13.75
2023-05-01T18:41:31.483Z,14.12
2023-05-01T18:43:59.733Z,13.65
2023-05-01T18:46:26.953Z,13.53
2023-05-01T18:48:54.158Z,13.65
2023-05-01T18:51:21.249Z,13.65
2023-05-01T18:53:48.242Z,13.66
2023-05-01T18:56:15.377Z,13.06
2023-05-01T18:58:43.024Z,12.49
2023-05-01T19:01:10.148Z,12.06
2023-05-01T19:03:37.422Z,12.30
2023-05-01T19:06:04.270Z,12.21
2023-05-01T19:08:31.808Z,12.29
2023-05-01T19:10:58.713Z,11.96
2023-05-01T19:16:10.716Z,11.64
2023-05-01T19:18:37.447Z,11.32
2023-05-01T19:21:05.602Z,11.44
2023-05-01T19:23:32.932Z,11.63
2023-05-01T19:26:00.237Z,11.33
2023-05-01T19:28:27.370Z,11.13
2023-05-01T19:30:55.210Z,11.18
2023-05-01T19:33:22.492Z,11.02
2023-05-01T19:35:49.573Z,11.04
2023-05-01T19:38:16.366Z,11.05
2023-05-01T19:40:46.060Z,11.04
2023-05-01T19:43:15.531Z,11.10
2023-05-01T19:45:42.894Z,10.98
2023-05-01T19:48:10.083Z,10.94
2023-05-01T19:50:39.845Z,10.99
2023-05-01T19:53:06.944Z,11.04
2023-05-01T19:55:33.990Z,11.16
2023-05-01T19:58:02.170Z,11.42
2023-05-01T20:00:30.070Z,11.25
2023-05-01T20:02:57.420Z,11.44
2023-05-01T20:05:26.249Z,11.83
2023-05-01T20:07:55.185Z,12.34
2023-05-01T20:10:23.365Z,11.77
2023-05-01T20:12:50.374Z,11.40
2023-05-01T20:15:18.843Z,11.07
2023-05-01T20:17:46.482Z,11.24
2023-05-01T20:20:13.266Z,11.54
2023-05-01T20:22:40.420Z,11.67
2023-05-01T20:25:09.570Z,11.74
2023-05-01T20:27:39.830Z,12.02
2023-05-01T20:30:11.097Z,11.95
2023-05-01T20:32:37.872Z,11.67
2023-05-01T20:35:05.849Z,11.62
2023-05-01T20:37:33.247Z,11.15
2023-05-01T20:40:00.830Z,11.07
2023-05-01T20:42:28.139Z,10.98
2023-05-01T20:44:54.978Z,11.04
2023-05-01T20:47:22.051Z,11.23
2023-05-01T20:49:49.285Z,11.26
2023-05-01T20:52:16.002Z,11.19
2023-05-01T20:54:43.033Z,11.16
2023-05-01T20:57:14.516Z,10.86
2023-05-01T20:59:51.331Z,10.81
2023-05-01T21:02:38.210Z,11.07
2023-05-01T21:05:06.004Z,11.08
2023-05-01T21:07:35.130Z,11.22
2023-05-01T21:10:01.916Z,11.45
2023-05-01T21:12:28.654Z,11.59
2023-05-01T21:14:55.761Z,11.64
2023-05-01T21:17:22.586Z,11.40
2023-05-01T21:19:49.620Z,10.98
2023-05-01T21:22:20.512Z,10.88
2023-05-01T21:24:56.221Z,10.87
2023-05-01T21:27:24.714Z,10.73
2023-05-01T21:30:01.510Z,10.70
2023-05-01T21:32:29.834Z,10.71
2023-05-01T21:34:56.661Z,10.63
2023-05-01T21:37:23.438Z,10.51
2023-05-01T21:39:50.579Z,10.40
2023-05-01T21:42:17.325Z,10.31
2023-05-01T21:44:44.425Z,10.34
2023-05-01T21:47:11.315Z,10.32
2023-05-01T21:49:38.339Z,10.19
2023-05-01T21:52:05.582Z,10.15
2023-05-01T21:54:32.361Z,10.15
2023-05-01T21:56:59.695Z,10.13
2023-05-01T21:59:38.449Z,10.10
2023-05-01T22:02:07.351Z,10.18
2023-05-01T22:04:34.639Z,10.11
2023-05-01T22:07:01.386Z,10.18
2023-05-01T22:09:28.493Z,10.00
2023-05-01T22:11:55.259Z,9.80
2023-05-01T22:14:23.006Z,9.73
2023-05-01T22:16:50.114Z,9.56
2023-05-01T22:19:18.332Z,9.54
2023-05-01T22:21:45.592Z,9.52
2023-05-01T22:24:12.981Z,9.49
2023-05-01T22:26:39.773Z,9.49
2023-05-01T22:29:08.597Z,9.48
2023-05-01T22:31:35.859Z,9.51
2023-05-01T22:34:02.653Z,9.49
2023-05-01T22:36:29.689Z,9.50
2023-05-01T22:38:56.694Z,9.54
2023-05-01T22:41:26.208Z,9.62
2023-05-01T22:43:53.288Z,9.76
2023-05-01T22:46:20.355Z,9.83
2023-05-01T22:48:47.615Z,9.78
2023-05-01T22:51:14.714Z,9.67
2023-05-01T22:53:41.428Z,9.81
2023-05-01T22:56:08.196Z,9.93
2023-05-01T22:58:35.252Z,9.81
2023-05-01T23:01:02.398Z,9.74
2023-05-01T23:03:29.831Z,9.73
2023-05-01T23:05:57.483Z,9.79
2023-05-01T23:08:27.201Z,9.96
2023-05-01T23:10:54.520Z,9.74
2023-05-01T23:13:21.322Z,9.81
2023-05-01T23:15:48.226Z,10.17
2023-05-01T23:18:15.873Z,9.88
2023-05-01T23:20:43.313Z,9.81
2023-05-01T23:23:13.316Z,9.64
2023-05-01T23:25:46.579Z,9.87
2023-05-01T23:28:13.340Z,9.87
2023-05-01T23:30:40.516Z,9.69
2023-05-01T23:33:07.771Z,9.91
2023-05-01T23:35:34.726Z,9.88
2023-05-01T23:38:01.800Z,9.77
2023-05-01T23:40:31.581Z,9.65
2023-05-01T23:42:59.836Z,9.61
2023-05-01T23:45:27.376Z,9.72
2023-05-01T23:47:54.196Z,9.71
2023-05-01T23:50:23.935Z,9.71
2023-05-01T23:52:51.268Z,9.80
2023-05-01T23:55:18.045Z,9.70
2023-05-01T23:57:45.133Z,10.00
